Terminal Aerodrome Forecast
Issued by NWS Mt. Holly, NJ

Home | Current Version | Previous Version | Text Only | Print | Product List | Glossary On
Versions: 1 2 3 4 5 6 7 8 9 10 11 12 13 14 15 16 17
000
FTUS41 KPHI 230144 AAB
TAFACY
TAF AMD
KACY 230144Z 2302/2324 VRB03KT 1SM BR OVC002
      TEMPO 2302/2306 1/4SM FG
     FM231300 02008KT 3SM BR SCT005 OVC015
     FM231900 08008KT 3SM -SHRA BKN025 OVC150=

USA.gov is the U.S. government's official web portal to all federal, state and local government web resources and services.